sensor_id;sensor_type;location;lat;lon;timestamp;temperature;humidity
14093;DHT22;7123;49.468;10.992;2023-04-06T00:01:11;6.60;99.90
14093;DHT22;7123;49.468;10.992;2023-04-06T00:03:38;6.60;99.90
14093;DHT22;7123;49.468;10.992;2023-04-06T00:06:05;6.60;99.90
14093;DHT22;7123;49.468;10.992;2023-04-06T00:08:32;6.60;99.90
14093;DHT22;7123;49.468;10.992;2023-04-06T00:10:59;6.60;99.90
14093;DHT22;7123;49.468;10.992;2023-04-06T00:13:27;6.50;99.90
14093;DHT22;7123;49.468;10.992;2023-04-06T00:15:54;6.50;99.90
14093;DHT22;7123;49.468;10.992;2023-04-06T00:18:23;6.50;99.90
14093;DHT22;7123;49.468;10.992;2023-04-06T00:20:50;6.50;99.90
14093;DHT22;7123;49.468;10.992;2023-04-06T00:23:17;6.50;99.90
14093;DHT22;7123;49.468;10.992;2023-04-06T00:25:44;6.50;99.90
14093;DHT22;7123;49.468;10.992;2023-04-06T00:28:11;6.50;99.90
14093;DHT22;7123;49.468;10.992;2023-04-06T00:30:38;6.50;99.90
14093;DHT22;7123;49.468;10.992;2023-04-06T00:33:05;6.40;99.90
14093;DHT22;7123;49.468;10.992;2023-04-06T00:35:32;6.40;99.90
14093;DHT22;7123;49.468;10.992;2023-04-06T00:37:59;6.40;99.90
14093;DHT22;7123;49.468;10.992;2023-04-06T00:40:27;6.40;99.90
14093;DHT22;7123;49.468;10.992;2023-04-06T00:42:55;6.40;99.90
14093;DHT22;7123;49.468;10.992;2023-04-06T00:45:22;6.40;99.90
14093;DHT22;7123;49.468;10.992;2023-04-06T00:47:49;6.30;99.90
14093;DHT22;7123;49.468;10.992;2023-04-06T00:50:16;6.30;99.90
14093;DHT22;7123;49.468;10.992;2023-04-06T00:52:43;6.30;99.90
14093;DHT22;7123;49.468;10.992;2023-04-06T00:55:10;6.30;99.90
14093;DHT22;7123;49.468;10.992;2023-04-06T00:57:36;6.60;99.90
14093;DHT22;7123;49.468;10.992;2023-04-06T01:00:04;6.20;99.90
14093;DHT22;7123;49.468;10.992;2023-04-06T01:02:31;6.20;99.90
14093;DHT22;7123;49.468;10.992;2023-04-06T01:04:58;6.20;99.90
14093;DHT22;7123;49.468;10.992;2023-04-06T01:07:25;6.20;99.90
14093;DHT22;7123;49.468;10.992;2023-04-06T01:09:53;6.20;99.90
14093;DHT22;7123;49.468;10.992;2023-04-06T01:12:20;6.20;99.90
14093;DHT22;7123;49.468;10.992;2023-04-06T01:14:47;6.20;99.90
14093;DHT22;7123;49.468;10.992;2023-04-06T01:17:14;6.10;99.90
14093;DHT22;7123;49.468;10.992;2023-04-06T01:19:41;6.10;99.90
14093;DHT22;7123;49.468;10.992;2023-04-06T01:22:08;6.10;99.90
14093;DHT22;7123;49.468;10.992;2023-04-06T01:24:34;6.10;99.90
14093;DHT22;7123;49.468;10.992;2023-04-06T01:27:01;6.10;99.90
14093;DHT22;7123;49.468;10.992;2023-04-06T01:29:28;6.00;99.90
14093;DHT22;7123;49.468;10.992;2023-04-06T01:31:55;6.00;99.90
14093;DHT22;7123;49.468;10.992;2023-04-06T01:34:22;6.00;99.90
14093;DHT22;7123;49.468;10.992;2023-04-06T01:36:48;6.00;99.90
14093;DHT22;7123;49.468;10.992;2023-04-06T01:39:15;6.00;99.90
14093;DHT22;7123;49.468;10.992;2023-04-06T01:41:42;5.90;99.90
14093;DHT22;7123;49.468;10.992;2023-04-06T01:44:09;5.90;99.90
14093;DHT22;7123;49.468;10.992;2023-04-06T01:46:35;5.90;99.90
14093;DHT22;7123;49.468;10.992;2023-04-06T01:49:02;5.90;99.90
14093;DHT22;7123;49.468;10.992;2023-04-06T01:51:29;5.90;99.90
14093;DHT22;7123;49.468;10.992;2023-04-06T01:53:56;5.90;99.90
14093;DHT22;7123;49.468;10.992;2023-04-06T01:56:23;5.80;99.90
14093;DHT22;7123;49.468;10.992;2023-04-06T01:58:50;5.80;99.90
14093;DHT22;7123;49.468;10.992;2023-04-06T02:01:17;5.80;99.90
14093;DHT22;7123;49.468;10.992;2023-04-06T02:03:44;5.80;99.90
14093;DHT22;7123;49.468;10.992;2023-04-06T02:06:11;5.80;99.90
14093;DHT22;7123;49.468;10.992;2023-04-06T02:08:38;5.80;99.90
14093;DHT22;7123;49.468;10.992;2023-04-06T02:11:04;5.80;99.90
14093;DHT22;7123;49.468;10.992;2023-04-06T02:13:31;5.70;99.90
14093;DHT22;7123;49.468;10.992;2023-04-06T02:15:58;5.70;99.90
14093;DHT22;7123;49.468;10.992;2023-04-06T02:18:25;5.70;99.90
14093;DHT22;7123;49.468;10.992;2023-04-06T02:20:51;5.60;99.90
14093;DHT22;7123;49.468;10.992;2023-04-06T02:23:18;5.60;99.90
14093;DHT22;7123;49.468;10.992;2023-04-06T02:25:45;5.60;99.90
14093;DHT22;7123;49.468;10.992;2023-04-06T02:28:12;5.60;99.90
14093;DHT22;7123;49.468;10.992;2023-04-06T02:30:39;5.60;99.90
14093;DHT22;7123;49.468;10.992;2023-04-06T02:33:06;5.60;99.90
14093;DHT22;7123;49.468;10.992;2023-04-06T02:35:32;5.60;99.90
14093;DHT22;7123;49.468;10.992;2023-04-06T02:37:59;5.60;99.90
14093;DHT22;7123;49.468;10.992;2023-04-06T02:40:26;5.60;99.90
14093;DHT22;7123;49.468;10.992;2023-04-06T02:42:53;5.60;99.90
14093;DHT22;7123;49.468;10.992;2023-04-06T02:45:19;5.50;99.90
14093;DHT22;7123;49.468;10.992;2023-04-06T02:47:47;5.60;99.90
14093;DHT22;7123;49.468;10.992;2023-04-06T02:50:14;5.50;99.90
14093;DHT22;7123;49.468;10.992;2023-04-06T02:52:41;5.50;99.90
14093;DHT22;7123;49.468;10.992;2023-04-06T02:55:08;5.50;99.90
14093;DHT22;7123;49.468;10.992;2023-04-06T02:57:35;5.50;99.90
14093;DHT22;7123;49.468;10.992;2023-04-06T03:00:02;5.50;99.90
14093;DHT22;7123;49.468;10.992;2023-04-06T03:02:28;5.40;99.90
14093;DHT22;7123;49.468;10.992;2023-04-06T03:04:55;5.40;99.90
14093;DHT22;7123;49.468;10.992;2023-04-06T03:07:23;5.40;99.90
14093;DHT22;7123;49.468;10.992;2023-04-06T03:09:49;5.40;99.90
14093;DHT22;7123;49.468;10.992;2023-04-06T03:12:16;5.40;99.90
14093;DHT22;7123;49.468;10.992;2023-04-06T03:14:43;5.40;99.90
14093;DHT22;7123;49.468;10.992;2023-04-06T03:17:10;5.40;99.90
14093;DHT22;7123;49.468;10.992;2023-04-06T03:19:36;5.30;99.90
14093;DHT22;7123;49.468;10.992;2023-04-06T03:22:03;5.30;99.90
14093;DHT22;7123;49.468;10.992;2023-04-06T03:24:30;5.30;99.90
14093;DHT22;7123;49.468;10.992;2023-04-06T03:26:56;5.30;99.90
14093;DHT22;7123;49.468;10.992;2023-04-06T03:29:23;5.30;99.90
14093;DHT22;7123;49.468;10.992;2023-04-06T03:31:50;5.30;99.90
14093;DHT22;7123;49.468;10.992;2023-04-06T03:34:17;5.20;99.90
14093;DHT22;7123;49.468;10.992;2023-04-06T03:36:43;5.20;99.90
14093;DHT22;7123;49.468;10.992;2023-04-06T03:39:10;5.20;99.90
14093;DHT22;7123;49.468;10.992;2023-04-06T03:41:37;5.20;99.90
14093;DHT22;7123;49.468;10.992;2023-04-06T03:44:05;5.20;99.90
14093;DHT22;7123;49.468;10.992;2023-04-06T03:46:32;5.20;99.90
14093;DHT22;7123;49.468;10.992;2023-04-06T03:49:00;5.20;99.90
14093;DHT22;7123;49.468;10.992;2023-04-06T03:51:27;5.10;99.90
14093;DHT22;7123;49.468;10.992;2023-04-06T03:53:54;5.10;99.90
14093;DHT22;7123;49.468;10.992;2023-04-06T03:56:21;5.20;99.90
14093;DHT22;7123;49.468;10.992;2023-04-06T03:58:47;5.10;99.90
14093;DHT22;7123;49.468;10.992;2023-04-06T04:01:17;5.20;99.90
14093;DHT22;7123;49.468;10.992;2023-04-06T04:03:46;5.10;99.90
14093;DHT22;7123;49.468;10.992;2023-04-06T04:06:17;5.00;99.90
14093;DHT22;7123;49.468;10.992;2023-04-06T04:08:43;5.00;99.90
14093;DHT22;7123;49.468;10.992;2023-04-06T04:11:10;5.00;99.90
14093;DHT22;7123;49.468;10.992;2023-04-06T04:13:37;5.00;99.90
14093;DHT22;7123;49.468;10.992;2023-04-06T04:16:04;5.00;99.90
14093;DHT22;7123;49.468;10.992;2023-04-06T04:18:31;5.00;99.90
14093;DHT22;7123;49.468;10.992;2023-04-06T04:20:57;5.00;99.90
14093;DHT22;7123;49.468;10.992;2023-04-06T04:23:24;4.90;99.90
14093;DHT22;7123;49.468;10.992;2023-04-06T04:25:51;4.90;99.90
14093;DHT22;7123;49.468;10.992;2023-04-06T04:28:18;4.90;99.90
14093;DHT22;7123;49.468;10.992;2023-04-06T04:30:45;4.90;99.90
14093;DHT22;7123;49.468;10.992;2023-04-06T04:33:12;4.90;99.90
14093;DHT22;7123;49.468;10.992;2023-04-06T04:35:39;4.90;99.90
14093;DHT22;7123;49.468;10.992;2023-04-06T04:38:05;4.90;99.90
14093;DHT22;7123;49.468;10.992;2023-04-06T04:40:32;4.80;99.90
14093;DHT22;7123;49.468;10.992;2023-04-06T04:42:59;4.80;99.90
14093;DHT22;7123;49.468;10.992;2023-04-06T04:45:28;5.00;99.90
14093;DHT22;7123;49.468;10.992;2023-04-06T04:47:55;4.80;99.90
14093;DHT22;7123;49.468;10.992;2023-04-06T04:50:22;4.90;99.90
14093;DHT22;7123;49.468;10.992;2023-04-06T04:52:49;4.90;99.90
14093;DHT22;7123;49.468;10.992;2023-04-06T04:55:16;4.90;99.90
14093;DHT22;7123;49.468;10.992;2023-04-06T04:57:43;4.90;99.90
14093;DHT22;7123;49.468;10.992;2023-04-06T05:00:11;4.90;99.90
14093;DHT22;7123;49.468;10.992;2023-04-06T05:02:38;4.90;99.90
14093;DHT22;7123;49.468;10.992;2023-04-06T05:05:06;4.90;99.90
14093;DHT22;7123;49.468;10.992;2023-04-06T05:07:33;4.90;99.90
14093;DHT22;7123;49.468;10.992;2023-04-06T05:10:00;4.90;99.90
14093;DHT22;7123;49.468;10.992;2023-04-06T05:12:27;4.90;99.90
14093;DHT22;7123;49.468;10.992;2023-04-06T05:14:54;4.90;99.90
14093;DHT22;7123;49.468;10.992;2023-04-06T05:17:20;4.90;99.90
14093;DHT22;7123;49.468;10.992;2023-04-06T05:19:47;4.90;99.90
14093;DHT22;7123;49.468;10.992;2023-04-06T05:22:14;4.90;99.90
14093;DHT22;7123;49.468;10.992;2023-04-06T05:24:45;4.90;99.90
14093;DHT22;7123;49.468;10.992;2023-04-06T05:27:12;4.90;99.90
14093;DHT22;7123;49.468;10.992;2023-04-06T05:29:39;4.90;99.90
14093;DHT22;7123;49.468;10.992;2023-04-06T05:32:06;4.90;99.90
14093;DHT22;7123;49.468;10.992;2023-04-06T05:34:33;4.90;99.90
14093;DHT22;7123;49.468;10.992;2023-04-06T05:37:00;4.90;99.90
14093;DHT22;7123;49.468;10.992;2023-04-06T05:39:27;4.90;99.90
14093;DHT22;7123;49.468;10.992;2023-04-06T05:41:53;4.90;99.90
14093;DHT22;7123;49.468;10.992;2023-04-06T05:44:20;4.90;99.90
14093;DHT22;7123;49.468;10.992;2023-04-06T05:46:47;4.90;99.90
14093;DHT22;7123;49.468;10.992;2023-04-06T05:49:13;5.00;99.90
14093;DHT22;7123;49.468;10.992;2023-04-06T05:51:40;5.00;99.90
14093;DHT22;7123;49.468;10.992;2023-04-06T05:54:07;5.00;99.90
14093;DHT22;7123;49.468;10.992;2023-04-06T05:56:33;4.90;99.90
14093;DHT22;7123;49.468;10.992;2023-04-06T05:59:00;5.00;99.90
14093;DHT22;7123;49.468;10.992;2023-04-06T06:01:27;5.00;99.90
14093;DHT22;7123;49.468;10.992;2023-04-06T06:03:53;5.00;99.90
14093;DHT22;7123;49.468;10.992;2023-04-06T06:06:20;5.10;99.90
14093;DHT22;7123;49.468;10.992;2023-04-06T06:08:47;5.10;99.90
14093;DHT22;7123;49.468;10.992;2023-04-06T06:11:13;5.10;99.90
14093;DHT22;7123;49.468;10.992;2023-04-06T06:13:40;5.10;99.90
14093;DHT22;7123;49.468;10.992;2023-04-06T06:16:07;5.10;99.90
14093;DHT22;7123;49.468;10.992;2023-04-06T06:18:34;5.20;99.90
14093;DHT22;7123;49.468;10.992;2023-04-06T06:21:01;5.20;99.90
14093;DHT22;7123;49.468;10.992;2023-04-06T06:23:27;5.20;99.90
14093;DHT22;7123;49.468;10.992;2023-04-06T06:25:54;5.30;99.90
14093;DHT22;7123;49.468;10.992;2023-04-06T06:28:23;5.30;99.90
14093;DHT22;7123;49.468;10.992;2023-04-06T06:30:51;5.30;99.90
14093;DHT22;7123;49.468;10.992;2023-04-06T06:33:18;5.30;99.90
14093;DHT22;7123;49.468;10.992;2023-04-06T06:35:44;5.40;99.90
14093;DHT22;7123;49.468;10.992;2023-04-06T06:38:11;5.40;99.90
14093;DHT22;7123;49.468;10.992;2023-04-06T06:40:39;5.40;99.90
14093;DHT22;7123;49.468;10.992;2023-04-06T06:43:05;5.40;99.90
14093;DHT22;7123;49.468;10.992;2023-04-06T06:45:32;5.50;99.90
14093;DHT22;7123;49.468;10.992;2023-04-06T06:47:59;5.40;99.90
14093;DHT22;7123;49.468;10.992;2023-04-06T06:50:26;5.50;99.90
14093;DHT22;7123;49.468;10.992;2023-04-06T06:52:53;5.50;99.90
14093;DHT22;7123;49.468;10.992;2023-04-06T06:55:20;5.50;99.90
14093;DHT22;7123;49.468;10.992;2023-04-06T06:57:47;5.60;99.90
14093;DHT22;7123;49.468;10.992;2023-04-06T07:00:14;5.60;99.90
14093;DHT22;7123;49.468;10.992;2023-04-06T07:02:41;5.60;99.90
14093;DHT22;7123;49.468;10.992;2023-04-06T07:05:08;5.60;99.90
14093;DHT22;7123;49.468;10.992;2023-04-06T07:07:52;5.70;99.90
14093;DHT22;7123;49.468;10.992;2023-04-06T07:10:18;5.70;99.90
14093;DHT22;7123;49.468;10.992;2023-04-06T07:12:45;5.70;99.90
14093;DHT22;7123;49.468;10.992;2023-04-06T07:15:12;5.70;99.90
14093;DHT22;7123;49.468;10.992;2023-04-06T07:17:39;5.70;99.90
14093;DHT22;7123;49.468;10.992;2023-04-06T07:20:08;5.80;99.90
14093;DHT22;7123;49.468;10.992;2023-04-06T07:22:35;5.80;99.90
14093;DHT22;7123;49.468;10.992;2023-04-06T07:25:01;5.80;99.90
14093;DHT22;7123;49.468;10.992;2023-04-06T07:27:28;5.90;99.90
14093;DHT22;7123;49.468;10.992;2023-04-06T07:29:55;5.90;99.90
14093;DHT22;7123;49.468;10.992;2023-04-06T07:32:22;5.90;99.90
14093;DHT22;7123;49.468;10.992;2023-04-06T07:34:49;6.00;99.90
14093;DHT22;7123;49.468;10.992;2023-04-06T07:37:16;6.00;99.90
14093;DHT22;7123;49.468;10.992;2023-04-06T07:39:43;6.00;99.90
14093;DHT22;7123;49.468;10.992;2023-04-06T07:42:10;6.10;99.90
14093;DHT22;7123;49.468;10.992;2023-04-06T07:44:36;6.10;99.90
14093;DHT22;7123;49.468;10.992;2023-04-06T07:47:03;6.10;99.90
14093;DHT22;7123;49.468;10.992;2023-04-06T07:49:30;6.10;99.90
14093;DHT22;7123;49.468;10.992;2023-04-06T07:51:58;6.30;99.90
14093;DHT22;7123;49.468;10.992;2023-04-06T07:54:25;6.20;99.90
14093;DHT22;7123;49.468;10.992;2023-04-06T07:56:51;6.20;99.90
14093;DHT22;7123;49.468;10.992;2023-04-06T07:59:18;6.30;99.90
14093;DHT22;7123;49.468;10.992;2023-04-06T08:01:45;6.30;99.90
14093;DHT22;7123;49.468;10.992;2023-04-06T08:04:12;6.40;99.90
14093;DHT22;7123;49.468;10.992;2023-04-06T08:06:39;6.40;99.90
14093;DHT22;7123;49.468;10.992;2023-04-06T08:09:07;6.50;99.90
14093;DHT22;7123;49.468;10.992;2023-04-06T08:11:34;6.50;99.90
14093;DHT22;7123;49.468;10.992;2023-04-06T08:14:00;6.50;99.90
14093;DHT22;7123;49.468;10.992;2023-04-06T08:16:27;6.60;99.90
14093;DHT22;7123;49.468;10.992;2023-04-06T08:18:54;6.60;99.90
14093;DHT22;7123;49.468;10.992;2023-04-06T08:21:21;6.70;99.90
14093;DHT22;7123;49.468;10.992;2023-04-06T08:23:48;6.70;99.90
14093;DHT22;7123;49.468;10.992;2023-04-06T08:26:15;6.80;99.90
14093;DHT22;7123;49.468;10.992;2023-04-06T08:28:42;6.80;99.90
14093;DHT22;7123;49.468;10.992;2023-04-06T08:31:12;6.90;99.90
14093;DHT22;7123;49.468;10.992;2023-04-06T08:33:39;6.90;99.90
14093;DHT22;7123;49.468;10.992;2023-04-06T08:36:08;6.90;99.90
14093;DHT22;7123;49.468;10.992;2023-04-06T08:38:35;7.00;99.90
14093;DHT22;7123;49.468;10.992;2023-04-06T08:46:35;7.10;99.90
14093;DHT22;7123;49.468;10.992;2023-04-06T08:49:02;7.10;99.90
14093;DHT22;7123;49.468;10.992;2023-04-06T08:51:30;7.20;99.90
14093;DHT22;7123;49.468;10.992;2023-04-06T08:53:58;7.20;99.90
14093;DHT22;7123;49.468;10.992;2023-04-06T08:56:26;7.20;99.90
14093;DHT22;7123;49.468;10.992;2023-04-06T08:58:54;7.30;99.90
14093;DHT22;7123;49.468;10.992;2023-04-06T09:01:25;7.40;99.90
14093;DHT22;7123;49.468;10.992;2023-04-06T09:03:58;7.40;99.90
14093;DHT22;7123;49.468;10.992;2023-04-06T09:06:27;7.40;99.90
14093;DHT22;7123;49.468;10.992;2023-04-06T09:08:54;7.40;99.90
14093;DHT22;7123;49.468;10.992;2023-04-06T09:11:21;7.50;99.90
14093;DHT22;7123;49.468;10.992;2023-04-06T09:13:57;7.50;99.90
14093;DHT22;7123;49.468;10.992;2023-04-06T09:16:24;7.60;99.90
14093;DHT22;7123;49.468;10.992;2023-04-06T09:18:52;7.60;99.90
14093;DHT22;7123;49.468;10.992;2023-04-06T09:21:19;7.70;99.90
14093;DHT22;7123;49.468;10.992;2023-04-06T09:24:00;7.70;99.90
14093;DHT22;7123;49.468;10.992;2023-04-06T09:26:27;7.70;99.90
14093;DHT22;7123;49.468;10.992;2023-04-06T09:28:58;7.80;99.90
14093;DHT22;7123;49.468;10.992;2023-04-06T09:31:30;7.90;99.90
14093;DHT22;7123;49.468;10.992;2023-04-06T09:34:00;8.00;99.90
14093;DHT22;7123;49.468;10.992;2023-04-06T09:36:45;8.00;99.90
14093;DHT22;7123;49.468;10.992;2023-04-06T09:39:13;8.00;99.90
14093;DHT22;7123;49.468;10.992;2023-04-06T09:41:39;8.00;99.90
14093;DHT22;7123;49.468;10.992;2023-04-06T09:44:12;8.10;99.90
14093;DHT22;7123;49.468;10.992;2023-04-06T09:46:41;8.10;99.90
14093;DHT22;7123;49.468;10.992;2023-04-06T09:49:30;8.10;99.90
14093;DHT22;7123;49.468;10.992;2023-04-06T09:52:03;8.10;99.90
14093;DHT22;7123;49.468;10.992;2023-04-06T09:54:31;8.10;99.90
14093;DHT22;7123;49.468;10.992;2023-04-06T09:59:58;8.20;99.90
14093;DHT22;7123;49.468;10.992;2023-04-06T10:05:09;8.30;99.90
14093;DHT22;7123;49.468;10.992;2023-04-06T10:07:40;8.30;99.90
14093;DHT22;7123;49.468;10.992;2023-04-06T10:10:25;8.30;99.90
14093;DHT22;7123;49.468;10.992;2023-04-06T10:12:51;8.40;99.90
14093;DHT22;7123;49.468;10.992;2023-04-06T10:15:18;8.40;99.90
14093;DHT22;7123;49.468;10.992;2023-04-06T10:17:48;8.50;99.90
14093;DHT22;7123;49.468;10.992;2023-04-06T10:20:25;8.60;99.90
14093;DHT22;7123;49.468;10.992;2023-04-06T10:23:05;8.70;99.90
14093;DHT22;7123;49.468;10.992;2023-04-06T10:25:34;8.80;99.90
14093;DHT22;7123;49.468;10.992;2023-04-06T10:28:08;8.80;99.90
14093;DHT22;7123;49.468;10.992;2023-04-06T10:30:37;8.70;99.90
14093;DHT22;7123;49.468;10.992;2023-04-06T10:33:18;8.70;99.90
14093;DHT22;7123;49.468;10.992;2023-04-06T10:35:46;8.70;99.90
14093;DHT22;7123;49.468;10.992;2023-04-06T10:38:13;8.80;99.90
14093;DHT22;7123;49.468;10.992;2023-04-06T10:40:42;8.80;99.90
14093;DHT22;7123;49.468;10.992;2023-04-06T10:43:20;8.70;99.90
14093;DHT22;7123;49.468;10.992;2023-04-06T10:45:57;8.80;99.90
14093;DHT22;7123;49.468;10.992;2023-04-06T10:48:40;8.90;99.90
14093;DHT22;7123;49.468;10.992;2023-04-06T10:51:11;9.00;99.90
14093;DHT22;7123;49.468;10.992;2023-04-06T10:53:44;9.10;99.90
14093;DHT22;7123;49.468;10.992;2023-04-06T10:56:13;9.10;99.90
14093;DHT22;7123;49.468;10.992;2023-04-06T10:58:46;9.20;99.90
14093;DHT22;7123;49.468;10.992;2023-04-06T11:01:18;9.20;99.90
14093;DHT22;7123;49.468;10.992;2023-04-06T11:03:51;9.20;99.90
14093;DHT22;7123;49.468;10.992;2023-04-06T11:06:26;9.10;99.90
14093;DHT22;7123;49.468;10.992;2023-04-06T11:08:54;9.10;99.90
14093;DHT22;7123;49.468;10.992;2023-04-06T11:11:22;9.00;99.90
14093;DHT22;7123;49.468;10.992;2023-04-06T11:13:57;9.00;99.90
14093;DHT22;7123;49.468;10.992;2023-04-06T11:16:25;9.00;99.90
14093;DHT22;7123;49.468;10.992;2023-04-06T11:19:10;9.00;99.90
14093;DHT22;7123;49.468;10.992;2023-04-06T11:21:44;9.00;99.90
14093;DHT22;7123;49.468;10.992;2023-04-06T11:24:21;9.10;99.90
14093;DHT22;7123;49.468;10.992;2023-04-06T11:26:56;9.20;99.90
14093;DHT22;7123;49.468;10.992;2023-04-06T11:29:28;9.20;99.90
14093;DHT22;7123;49.468;10.992;2023-04-06T11:32:05;9.20;99.90
14093;DHT22;7123;49.468;10.992;2023-04-06T11:34:40;9.30;99.90
14093;DHT22;7123;49.468;10.992;2023-04-06T11:37:09;9.30;99.90
14093;DHT22;7123;49.468;10.992;2023-04-06T11:39:50;9.30;99.90
14093;DHT22;7123;49.468;10.992;2023-04-06T11:42:28;9.40;99.90
14093;DHT22;7123;49.468;10.992;2023-04-06T11:44:57;9.40;99.90
14093;DHT22;7123;49.468;10.992;2023-04-06T11:47:37;9.40;99.90
14093;DHT22;7123;49.468;10.992;2023-04-06T11:50:12;9.40;99.90
14093;DHT22;7123;49.468;10.992;2023-04-06T11:52:40;9.50;99.90
14093;DHT22;7123;49.468;10.992;2023-04-06T11:55:16;9.60;99.90
14093;DHT22;7123;49.468;10.992;2023-04-06T11:57:46;9.70;99.90
14093;DHT22;7123;49.468;10.992;2023-04-06T12:00:13;9.70;99.90
14093;DHT22;7123;49.468;10.992;2023-04-06T12:02:45;9.80;99.90
14093;DHT22;7123;49.468;10.992;2023-04-06T12:05:12;9.90;99.90
14093;DHT22;7123;49.468;10.992;2023-04-06T12:07:39;9.90;99.90
14093;DHT22;7123;49.468;10.992;2023-04-06T12:10:09;10.00;99.90
14093;DHT22;7123;49.468;10.992;2023-04-06T12:12:36;10.00;99.90
14093;DHT22;7123;49.468;10.992;2023-04-06T12:15:03;10.00;99.90
14093;DHT22;7123;49.468;10.992;2023-04-06T12:17:31;10.00;99.90
14093;DHT22;7123;49.468;10.992;2023-04-06T12:19:58;10.00;99.90
14093;DHT22;7123;49.468;10.992;2023-04-06T12:22:35;9.90;99.90
14093;DHT22;7123;49.468;10.992;2023-04-06T12:25:03;9.90;99.90
14093;DHT22;7123;49.468;10.992;2023-04-06T12:27:29;10.00;99.90
14093;DHT22;7123;49.468;10.992;2023-04-06T12:29:56;10.00;99.90
14093;DHT22;7123;49.468;10.992;2023-04-06T12:32:23;10.10;99.90
14093;DHT22;7123;49.468;10.992;2023-04-06T12:34:53;10.20;99.90
14093;DHT22;7123;49.468;10.992;2023-04-06T12:37:20;10.20;99.90
14093;DHT22;7123;49.468;10.992;2023-04-06T12:39:47;10.30;99.90
14093;DHT22;7123;49.468;10.992;2023-04-06T12:42:13;10.30;99.90
14093;DHT22;7123;49.468;10.992;2023-04-06T12:44:40;10.30;99.90
14093;DHT22;7123;49.468;10.992;2023-04-06T12:47:09;10.40;99.90
14093;DHT22;7123;49.468;10.992;2023-04-06T12:49:37;10.40;99.90
14093;DHT22;7123;49.468;10.992;2023-04-06T12:52:04;10.50;99.90
14093;DHT22;7123;49.468;10.992;2023-04-06T12:54:31;10.60;99.90
14093;DHT22;7123;49.468;10.992;2023-04-06T12:56:58;10.70;99.90
14093;DHT22;7123;49.468;10.992;2023-04-06T12:59:26;10.70;99.90
14093;DHT22;7123;49.468;10.992;2023-04-06T13:01:54;10.70;99.90
14093;DHT22;7123;49.468;10.992;2023-04-06T13:04:21;10.60;99.90
14093;DHT22;7123;49.468;10.992;2023-04-06T13:06:48;10.60;99.90
14093;DHT22;7123;49.468;10.992;2023-04-06T13:09:15;10.60;99.90
14093;DHT22;7123;49.468;10.992;2023-04-06T13:11:42;10.70;99.90
14093;DHT22;7123;49.468;10.992;2023-04-06T13:14:11;10.80;99.50
14093;DHT22;7123;49.468;10.992;2023-04-06T13:16:38;11.00;98.90
14093;DHT22;7123;49.468;10.992;2023-04-06T13:19:05;11.20;98.10
14093;DHT22;7123;49.468;10.992;2023-04-06T13:21:32;11.40;99.90
14093;DHT22;7123;49.468;10.992;2023-04-06T13:23:58;11.50;98.00
14093;DHT22;7123;49.468;10.992;2023-04-06T13:26:26;11.60;96.70
14093;DHT22;7123;49.468;10.992;2023-04-06T13:28:53;11.70;96.30
14093;DHT22;7123;49.468;10.992;2023-04-06T13:31:19;11.80;95.90
14093;DHT22;7123;49.468;10.992;2023-04-06T13:33:46;12.00;95.20
14093;DHT22;7123;49.468;10.992;2023-04-06T13:36:13;12.30;94.70
14093;DHT22;7123;49.468;10.992;2023-04-06T13:38:43;12.20;97.90
14093;DHT22;7123;49.468;10.992;2023-04-06T13:41:20;12.10;97.10
14093;DHT22;7123;49.468;10.992;2023-04-06T13:43:47;12.10;98.10
14093;DHT22;7123;49.468;10.992;2023-04-06T13:46:14;12.10;96.90
14093;DHT22;7123;49.468;10.992;2023-04-06T13:48:42;12.20;97.60
14093;DHT22;7123;49.468;10.992;2023-04-06T13:51:13;12.10;97.30
14093;DHT22;7123;49.468;10.992;2023-04-06T13:53:39;12.00;97.40
14093;DHT22;7123;49.468;10.992;2023-04-06T13:56:07;12.00;96.30
14093;DHT22;7123;49.468;10.992;2023-04-06T13:58:34;12.00;97.50
14093;DHT22;7123;49.468;10.992;2023-04-06T14:01:04;12.00;97.60
14093;DHT22;7123;49.468;10.992;2023-04-06T14:03:33;11.90;96.70
14093;DHT22;7123;49.468;10.992;2023-04-06T14:06:00;12.30;93.00
14093;DHT22;7123;49.468;10.992;2023-04-06T14:08:34;12.60;91.60
14093;DHT22;7123;49.468;10.992;2023-04-06T14:11:01;12.80;89.70
14093;DHT22;7123;49.468;10.992;2023-04-06T14:13:28;13.00;89.30
14093;DHT22;7123;49.468;10.992;2023-04-06T14:15:55;13.30;87.70
14093;DHT22;7123;49.468;10.992;2023-04-06T14:18:22;13.50;86.00
14093;DHT22;7123;49.468;10.992;2023-04-06T14:20:55;13.50;82.50
14093;DHT22;7123;49.468;10.992;2023-04-06T14:23:22;13.60;81.20
14093;DHT22;7123;49.468;10.992;2023-04-06T14:25:49;13.50;77.30
14093;DHT22;7123;49.468;10.992;2023-04-06T14:28:16;13.40;77.50
14093;DHT22;7123;49.468;10.992;2023-04-06T14:30:44;13.40;79.10
14093;DHT22;7123;49.468;10.992;2023-04-06T14:33:10;13.60;79.40
14093;DHT22;7123;49.468;10.992;2023-04-06T14:35:40;13.80;78.00
14093;DHT22;7123;49.468;10.992;2023-04-06T14:38:07;14.10;77.40
14093;DHT22;7123;49.468;10.992;2023-04-06T14:40:37;14.30;79.20
14093;DHT22;7123;49.468;10.992;2023-04-06T14:43:03;14.50;78.60
14093;DHT22;7123;49.468;10.992;2023-04-06T14:45:33;14.60;80.70
14093;DHT22;7123;49.468;10.992;2023-04-06T14:48:00;14.60;78.10
14093;DHT22;7123;49.468;10.992;2023-04-06T14:50:27;14.60;78.10
14093;DHT22;7123;49.468;10.992;2023-04-06T14:52:54;14.40;77.50
14093;DHT22;7123;49.468;10.992;2023-04-06T14:55:21;14.30;78.00
14093;DHT22;7123;49.468;10.992;2023-04-06T14:57:47;14.30;77.30
14093;DHT22;7123;49.468;10.992;2023-04-06T15:00:15;14.20;77.30
14093;DHT22;7123;49.468;10.992;2023-04-06T15:02:42;14.00;76.70
14093;DHT22;7123;49.468;10.992;2023-04-06T15:05:10;13.80;77.00
14093;DHT22;7123;49.468;10.992;2023-04-06T15:07:37;13.70;77.80
14093;DHT22;7123;49.468;10.992;2023-04-06T15:10:05;13.80;78.10
14093;DHT22;7123;49.468;10.992;2023-04-06T15:12:32;14.10;77.50
14093;DHT22;7123;49.468;10.992;2023-04-06T15:14:59;14.40;75.90
14093;DHT22;7123;49.468;10.992;2023-04-06T15:17:27;14.80;75.00
14093;DHT22;7123;49.468;10.992;2023-04-06T15:19:57;15.10;73.90
14093;DHT22;7123;49.468;10.992;2023-04-06T15:22:23;15.00;74.30
14093;DHT22;7123;49.468;10.992;2023-04-06T15:24:50;15.10;73.40
14093;DHT22;7123;49.468;10.992;2023-04-06T15:27:17;15.40;72.50
14093;DHT22;7123;49.468;10.992;2023-04-06T15:29:43;15.70;72.30
14093;DHT22;7123;49.468;10.992;2023-04-06T15:32:10;15.70;71.10
14093;DHT22;7123;49.468;10.992;2023-04-06T15:34:37;15.60;73.50
14093;DHT22;7123;49.468;10.992;2023-04-06T15:37:03;15.60;73.30
14093;DHT22;7123;49.468;10.992;2023-04-06T15:39:32;16.10;71.70
14093;DHT22;7123;49.468;10.992;2023-04-06T15:41:59;16.00;70.80
14093;DHT22;7123;49.468;10.992;2023-04-06T15:44:26;15.90;69.90
14093;DHT22;7123;49.468;10.992;2023-04-06T15:46:53;15.60;70.70
14093;DHT22;7123;49.468;10.992;2023-04-06T15:49:19;15.40;72.30
14093;DHT22;7123;49.468;10.992;2023-04-06T15:51:48;15.60;71.20
14093;DHT22;7123;49.468;10.992;2023-04-06T15:54:15;15.60;70.90
14093;DHT22;7123;49.468;10.992;2023-04-06T15:56:43;15.90;71.10
14093;DHT22;7123;49.468;10.992;2023-04-06T15:59:10;15.80;70.20